sensor_id;sensor_type;location;lat;lon;timestamp;P1;durP1;ratioP1;P2;durP2;ratioP2
53391;SDS011;41667;51.922;8.850;2024-03-17T00:00:17;4.35;;;3.00;;
53391;SDS011;41667;51.922;8.850;2024-03-17T00:02:43;2.80;;;2.58;;
53391;SDS011;41667;51.922;8.850;2024-03-17T00:05:09;4.05;;;2.83;;
53391;SDS011;41667;51.922;8.850;2024-03-17T00:07:34;5.15;;;3.33;;
53391;SDS011;41667;51.922;8.850;2024-03-17T00:09:59;3.67;;;2.17;;
53391;SDS011;41667;51.922;8.850;2024-03-17T00:12:25;2.85;;;2.58;;
53391;SDS011;41667;51.922;8.850;2024-03-17T00:14:51;3.63;;;3.10;;
53391;SDS011;41667;51.922;8.850;2024-03-17T00:17:16;5.72;;;2.85;;
53391;SDS011;41667;51.922;8.850;2024-03-17T00:19:41;7.68;;;3.13;;
53391;SDS011;41667;51.922;8.850;2024-03-17T00:22:06;7.40;;;2.60;;
53391;SDS011;41667;51.922;8.850;2024-03-17T00:24:34;6.38;;;2.50;;
53391;SDS011;41667;51.922;8.850;2024-03-17T00:27:00;5.40;;;3.03;;
53391;SDS011;41667;51.922;8.850;2024-03-17T00:29:26;3.58;;;2.33;;
53391;SDS011;41667;51.922;8.850;2024-03-17T00:31:53;5.80;;;3.03;;
53391;SDS011;41667;51.922;8.850;2024-03-17T00:34:18;9.27;;;3.90;;
53391;SDS011;41667;51.922;8.850;2024-03-17T00:36:44;5.93;;;3.95;;
53391;SDS011;41667;51.922;8.850;2024-03-17T00:39:09;7.40;;;3.42;;
53391;SDS011;41667;51.922;8.850;2024-03-17T00:41:34;9.13;;;2.72;;
53391;SDS011;41667;51.922;8.850;2024-03-17T00:44:00;4.93;;;3.17;;
53391;SDS011;41667;51.922;8.850;2024-03-17T00:46:25;4.22;;;2.70;;
53391;SDS011;41667;51.922;8.850;2024-03-17T00:48:51;5.03;;;2.92;;
53391;SDS011;41667;51.922;8.850;2024-03-17T00:51:16;6.68;;;2.80;;
53391;SDS011;41667;51.922;8.850;2024-03-17T00:53:41;8.23;;;2.90;;
53391;SDS011;41667;51.922;8.850;2024-03-17T00:56:07;5.95;;;3.10;;
53391;SDS011;41667;51.922;8.850;2024-03-17T00:58:32;7.57;;;2.88;;
53391;SDS011;41667;51.922;8.850;2024-03-17T01:00:57;5.07;;;2.58;;
53391;SDS011;41667;51.922;8.850;2024-03-17T01:03:23;9.00;;;2.97;;
53391;SDS011;41667;51.922;8.850;2024-03-17T01:05:48;3.92;;;2.97;;
53391;SDS011;41667;51.922;8.850;2024-03-17T01:08:17;5.50;;;3.00;;
53391;SDS011;41667;51.922;8.850;2024-03-17T01:10:42;5.75;;;2.88;;
53391;SDS011;41667;51.922;8.850;2024-03-17T01:13:09;2.60;;;2.40;;
53391;SDS011;41667;51.922;8.850;2024-03-17T01:15:35;6.50;;;2.60;;
53391;SDS011;41667;51.922;8.850;2024-03-17T01:18:01;3.63;;;2.88;;
53391;SDS011;41667;51.922;8.850;2024-03-17T01:20:27;6.28;;;3.13;;
53391;SDS011;41667;51.922;8.850;2024-03-17T01:22:52;3.20;;;2.90;;
53391;SDS011;41667;51.922;8.850;2024-03-17T01:25:18;4.32;;;2.78;;
53391;SDS011;41667;51.922;8.850;2024-03-17T01:27:43;3.90;;;2.92;;
53391;SDS011;41667;51.922;8.850;2024-03-17T01:30:09;3.35;;;2.85;;
53391;SDS011;41667;51.922;8.850;2024-03-17T01:32:35;6.07;;;2.25;;
53391;SDS011;41667;51.922;8.850;2024-03-17T01:35:00;3.00;;;2.40;;
53391;SDS011;41667;51.922;8.850;2024-03-17T01:37:26;5.45;;;2.30;;
53391;SDS011;41667;51.922;8.850;2024-03-17T01:39:51;4.22;;;2.38;;
53391;SDS011;41667;51.922;8.850;2024-03-17T01:42:16;6.90;;;2.55;;
53391;SDS011;41667;51.922;8.850;2024-03-17T01:44:42;5.15;;;2.60;;
53391;SDS011;41667;51.922;8.850;2024-03-17T01:47:07;3.25;;;2.95;;
53391;SDS011;41667;51.922;8.850;2024-03-17T01:49:34;3.90;;;2.58;;
53391;SDS011;41667;51.922;8.850;2024-03-17T01:51:59;6.28;;;2.30;;
53391;SDS011;41667;51.922;8.850;2024-03-17T01:54:24;3.30;;;2.50;;
53391;SDS011;41667;51.922;8.850;2024-03-17T01:56:50;7.68;;;2.97;;
53391;SDS011;41667;51.922;8.850;2024-03-17T01:59:15;3.25;;;2.95;;
53391;SDS011;41667;51.922;8.850;2024-03-17T02:01:41;7.32;;;2.85;;
53391;SDS011;41667;51.922;8.850;2024-03-17T02:04:06;4.85;;;2.58;;
53391;SDS011;41667;51.922;8.850;2024-03-17T02:06:32;6.03;;;2.50;;
53391;SDS011;41667;51.922;8.850;2024-03-17T02:08:57;2.97;;;2.10;;
53391;SDS011;41667;51.922;8.850;2024-03-17T02:11:29;3.50;;;2.58;;
53391;SDS011;41667;51.922;8.850;2024-03-17T02:13:56;2.45;;;2.28;;
53391;SDS011;41667;51.922;8.850;2024-03-17T02:16:22;2.88;;;2.67;;
53391;SDS011;41667;51.922;8.850;2024-03-17T02:18:48;2.45;;;2.22;;
53391;SDS011;41667;51.922;8.850;2024-03-17T02:21:13;3.35;;;2.40;;
53391;SDS011;41667;51.922;8.850;2024-03-17T02:23:40;3.92;;;2.50;;
53391;SDS011;41667;51.922;8.850;2024-03-17T02:26:06;3.40;;;3.03;;
53391;SDS011;41667;51.922;8.850;2024-03-17T02:28:38;1.80;;;1.70;;
53391;SDS011;41667;51.922;8.850;2024-03-17T02:31:04;3.60;;;2.47;;
53391;SDS011;41667;51.922;8.850;2024-03-17T02:33:30;3.40;;;2.55;;
53391;SDS011;41667;51.922;8.850;2024-03-17T02:35:55;3.35;;;2.35;;
53391;SDS011;41667;51.922;8.850;2024-03-17T02:38:20;3.13;;;2.50;;
53391;SDS011;41667;51.922;8.850;2024-03-17T02:41:06;4.45;;;2.90;;
53391;SDS011;41667;51.922;8.850;2024-03-17T02:43:31;6.40;;;2.80;;
53391;SDS011;41667;51.922;8.850;2024-03-17T02:45:56;4.03;;;2.85;;
53391;SDS011;41667;51.922;8.850;2024-03-17T02:48:22;4.32;;;2.60;;
53391;SDS011;41667;51.922;8.850;2024-03-17T02:50:48;5.50;;;2.92;;
53391;SDS011;41667;51.922;8.850;2024-03-17T02:53:13;4.32;;;3.03;;
53391;SDS011;41667;51.922;8.850;2024-03-17T02:55:39;4.85;;;2.85;;
53391;SDS011;41667;51.922;8.850;2024-03-17T02:58:04;4.72;;;2.72;;
53391;SDS011;41667;51.922;8.850;2024-03-17T03:00:29;8.80;;;2.40;;
53391;SDS011;41667;51.922;8.850;2024-03-17T03:02:55;5.88;;;2.45;;
53391;SDS011;41667;51.922;8.850;2024-03-17T03:05:20;4.47;;;2.20;;
53391;SDS011;41667;51.922;8.850;2024-03-17T03:07:45;3.63;;;3.00;;
53391;SDS011;41667;51.922;8.850;2024-03-17T03:10:11;5.82;;;2.92;;
53391;SDS011;41667;51.922;8.850;2024-03-17T03:12:36;3.63;;;2.60;;
53391;SDS011;41667;51.922;8.850;2024-03-17T03:15:01;9.55;;;2.25;;
53391;SDS011;41667;51.922;8.850;2024-03-17T03:17:27;5.00;;;2.58;;
53391;SDS011;41667;51.922;8.850;2024-03-17T03:19:53;4.50;;;2.50;;
53391;SDS011;41667;51.922;8.850;2024-03-17T03:22:20;2.83;;;2.40;;
53391;SDS011;41667;51.922;8.850;2024-03-17T03:24:46;3.58;;;1.95;;
53391;SDS011;41667;51.922;8.850;2024-03-17T03:27:12;7.55;;;3.00;;
53391;SDS011;41667;51.922;8.850;2024-03-17T03:29:38;3.10;;;1.88;;
53391;SDS011;41667;51.922;8.850;2024-03-17T03:32:03;2.83;;;2.63;;
53391;SDS011;41667;51.922;8.850;2024-03-17T03:34:29;2.30;;;2.10;;
53391;SDS011;41667;51.922;8.850;2024-03-17T03:36:54;4.72;;;3.00;;
53391;SDS011;41667;51.922;8.850;2024-03-17T03:39:21;10.25;;;2.63;;
53391;SDS011;41667;51.922;8.850;2024-03-17T03:41:46;4.85;;;2.78;;
53391;SDS011;41667;51.922;8.850;2024-03-17T03:44:12;3.13;;;2.35;;
53391;SDS011;41667;51.922;8.850;2024-03-17T03:46:37;5.95;;;2.63;;
53391;SDS011;41667;51.922;8.850;2024-03-17T03:49:02;2.20;;;2.00;;
53391;SDS011;41667;51.922;8.850;2024-03-17T03:51:28;3.15;;;2.10;;
53391;SDS011;41667;51.922;8.850;2024-03-17T03:53:54;4.55;;;2.55;;
53391;SDS011;41667;51.922;8.850;2024-03-17T03:56:19;6.45;;;2.20;;
53391;SDS011;41667;51.922;8.850;2024-03-17T03:58:45;4.13;;;2.60;;
53391;SDS011;41667;51.922;8.850;2024-03-17T04:01:11;6.45;;;2.42;;
53391;SDS011;41667;51.922;8.850;2024-03-17T04:03:36;3.00;;;2.70;;
53391;SDS011;41667;51.922;8.850;2024-03-17T04:06:05;5.47;;;2.38;;
53391;SDS011;41667;51.922;8.850;2024-03-17T04:08:33;3.15;;;2.42;;
53391;SDS011;41667;51.922;8.850;2024-03-17T04:10:59;8.05;;;2.83;;
53391;SDS011;41667;51.922;8.850;2024-03-17T04:13:26;3.72;;;2.70;;
53391;SDS011;41667;51.922;8.850;2024-03-17T04:15:51;2.22;;;2.03;;
53391;SDS011;41667;51.922;8.850;2024-03-17T04:18:21;2.67;;;2.42;;
53391;SDS011;41667;51.922;8.850;2024-03-17T04:20:46;2.50;;;2.30;;
53391;SDS011;41667;51.922;8.850;2024-03-17T04:23:12;3.05;;;2.67;;
53391;SDS011;41667;51.922;8.850;2024-03-17T04:25:37;6.25;;;2.42;;
53391;SDS011;41667;51.922;8.850;2024-03-17T04:28:04;2.53;;;2.28;;
53391;SDS011;41667;51.922;8.850;2024-03-17T04:30:29;5.95;;;2.13;;
53391;SDS011;41667;51.922;8.850;2024-03-17T04:32:56;8.20;;;2.95;;
53391;SDS011;41667;51.922;8.850;2024-03-17T04:35:21;11.02;;;2.85;;
53391;SDS011;41667;51.922;8.850;2024-03-17T04:37:46;2.80;;;2.33;;
53391;SDS011;41667;51.922;8.850;2024-03-17T04:40:13;2.65;;;2.45;;
53391;SDS011;41667;51.922;8.850;2024-03-17T04:42:38;3.85;;;2.83;;
53391;SDS011;41667;51.922;8.850;2024-03-17T04:45:04;2.70;;;2.47;;
53391;SDS011;41667;51.922;8.850;2024-03-17T04:47:30;6.72;;;2.70;;
53391;SDS011;41667;51.922;8.850;2024-03-17T04:49:56;4.28;;;2.70;;
53391;SDS011;41667;51.922;8.850;2024-03-17T04:52:21;2.42;;;2.13;;
53391;SDS011;41667;51.922;8.850;2024-03-17T04:54:46;10.13;;;2.55;;
53391;SDS011;41667;51.922;8.850;2024-03-17T04:57:12;5.97;;;2.22;;
53391;SDS011;41667;51.922;8.850;2024-03-17T04:59:37;6.80;;;2.33;;
53391;SDS011;41667;51.922;8.850;2024-03-17T05:02:03;2.25;;;2.03;;
53391;SDS011;41667;51.922;8.850;2024-03-17T05:04:29;6.45;;;2.65;;
53391;SDS011;41667;51.922;8.850;2024-03-17T05:06:54;4.10;;;2.10;;
53391;SDS011;41667;51.922;8.850;2024-03-17T05:09:19;2.92;;;2.22;;
53391;SDS011;41667;51.922;8.850;2024-03-17T05:11:45;3.80;;;2.58;;
53391;SDS011;41667;51.922;8.850;2024-03-17T05:14:12;2.78;;;2.58;;
53391;SDS011;41667;51.922;8.850;2024-03-17T05:16:37;5.63;;;2.90;;
53391;SDS011;41667;51.922;8.850;2024-03-17T05:19:03;6.90;;;2.42;;
53391;SDS011;41667;51.922;8.850;2024-03-17T05:21:28;4.47;;;2.70;;
53391;SDS011;41667;51.922;8.850;2024-03-17T05:23:57;2.83;;;2.13;;
53391;SDS011;41667;51.922;8.850;2024-03-17T05:26:25;5.82;;;2.78;;
53391;SDS011;41667;51.922;8.850;2024-03-17T05:28:50;4.85;;;2.67;;
53391;SDS011;41667;51.922;8.850;2024-03-17T05:31:16;7.20;;;2.20;;
53391;SDS011;41667;51.922;8.850;2024-03-17T05:33:43;2.47;;;2.38;;
53391;SDS011;41667;51.922;8.850;2024-03-17T05:36:11;2.65;;;2.45;;
53391;SDS011;41667;51.922;8.850;2024-03-17T05:38:36;4.70;;;3.33;;
53391;SDS011;41667;51.922;8.850;2024-03-17T05:41:05;4.40;;;3.20;;
53391;SDS011;41667;51.922;8.850;2024-03-17T05:43:32;2.63;;;2.40;;
53391;SDS011;41667;51.922;8.850;2024-03-17T05:45:58;3.83;;;2.22;;
53391;SDS011;41667;51.922;8.850;2024-03-17T05:48:26;4.80;;;2.90;;
53391;SDS011;41667;51.922;8.850;2024-03-17T05:50:51;4.93;;;2.17;;
53391;SDS011;41667;51.922;8.850;2024-03-17T05:53:17;3.22;;;2.10;;
53391;SDS011;41667;51.922;8.850;2024-03-17T05:55:43;6.55;;;2.33;;
53391;SDS011;41667;51.922;8.850;2024-03-17T05:58:08;3.10;;;2.63;;
53391;SDS011;41667;51.922;8.850;2024-03-17T06:00:34;4.53;;;2.10;;
53391;SDS011;41667;51.922;8.850;2024-03-17T06:03:00;2.83;;;2.53;;
53391;SDS011;41667;51.922;8.850;2024-03-17T06:05:26;4.05;;;2.67;;
53391;SDS011;41667;51.922;8.850;2024-03-17T06:07:51;4.10;;;2.50;;
53391;SDS011;41667;51.922;8.850;2024-03-17T06:10:17;4.47;;;3.28;;
53391;SDS011;41667;51.922;8.850;2024-03-17T06:12:42;5.15;;;3.05;;
53391;SDS011;41667;51.922;8.850;2024-03-17T06:15:07;5.15;;;2.88;;
53391;SDS011;41667;51.922;8.850;2024-03-17T06:17:33;8.93;;;3.08;;
53391;SDS011;41667;51.922;8.850;2024-03-17T06:19:58;7.10;;;3.05;;
53391;SDS011;41667;51.922;8.850;2024-03-17T06:22:26;5.75;;;2.40;;
53391;SDS011;41667;51.922;8.850;2024-03-17T06:24:52;3.58;;;3.25;;
53391;SDS011;41667;51.922;8.850;2024-03-17T06:27:17;5.45;;;2.63;;
53391;SDS011;41667;51.922;8.850;2024-03-17T06:29:42;4.70;;;3.20;;
53391;SDS011;41667;51.922;8.850;2024-03-17T06:32:08;7.55;;;3.08;;
53391;SDS011;41667;51.922;8.850;2024-03-17T06:34:33;4.32;;;2.70;;
53391;SDS011;41667;51.922;8.850;2024-03-17T06:36:58;7.70;;;3.22;;
53391;SDS011;41667;51.922;8.850;2024-03-17T06:39:25;5.45;;;3.28;;
53391;SDS011;41667;51.922;8.850;2024-03-17T06:41:50;4.20;;;2.80;;
53391;SDS011;41667;51.922;8.850;2024-03-17T06:44:15;4.57;;;2.97;;
53391;SDS011;41667;51.922;8.850;2024-03-17T06:46:41;4.95;;;3.08;;
53391;SDS011;41667;51.922;8.850;2024-03-17T06:49:06;4.80;;;2.72;;
53391;SDS011;41667;51.922;8.850;2024-03-17T06:51:32;5.75;;;3.55;;
53391;SDS011;41667;51.922;8.850;2024-03-17T06:53:57;12.52;;;3.63;;
53391;SDS011;41667;51.922;8.850;2024-03-17T06:56:23;8.30;;;3.97;;
53391;SDS011;41667;51.922;8.850;2024-03-17T06:58:49;4.75;;;3.42;;
53391;SDS011;41667;51.922;8.850;2024-03-17T07:01:17;6.05;;;3.17;;
53391;SDS011;41667;51.922;8.850;2024-03-17T07:03:42;5.00;;;3.17;;
53391;SDS011;41667;51.922;8.850;2024-03-17T07:06:07;8.32;;;4.45;;
53391;SDS011;41667;51.922;8.850;2024-03-17T07:08:33;7.10;;;3.95;;
53391;SDS011;41667;51.922;8.850;2024-03-17T07:11:02;4.72;;;2.92;;
53391;SDS011;41667;51.922;8.850;2024-03-17T07:13:29;5.85;;;3.55;;
53391;SDS011;41667;51.922;8.850;2024-03-17T07:15:55;5.43;;;3.85;;
53391;SDS011;41667;51.922;8.850;2024-03-17T07:18:21;6.35;;;3.55;;
53391;SDS011;41667;51.922;8.850;2024-03-17T07:20:46;9.13;;;4.55;;
53391;SDS011;41667;51.922;8.850;2024-03-17T07:23:13;7.45;;;4.35;;
53391;SDS011;41667;51.922;8.850;2024-03-17T07:25:41;5.55;;;4.55;;
53391;SDS011;41667;51.922;8.850;2024-03-17T07:28:07;10.15;;;4.53;;
53391;SDS011;41667;51.922;8.850;2024-03-17T07:30:32;5.90;;;3.92;;
53391;SDS011;41667;51.922;8.850;2024-03-17T07:32:57;8.02;;;4.70;;
53391;SDS011;41667;51.922;8.850;2024-03-17T07:35:23;9.73;;;5.43;;
53391;SDS011;41667;51.922;8.850;2024-03-17T07:37:48;9.77;;;5.30;;
53391;SDS011;41667;51.922;8.850;2024-03-17T07:40:13;10.75;;;6.00;;
53391;SDS011;41667;51.922;8.850;2024-03-17T07:42:40;8.75;;;5.30;;
53391;SDS011;41667;51.922;8.850;2024-03-17T07:45:05;10.82;;;5.70;;
53391;SDS011;41667;51.922;8.850;2024-03-17T07:47:31;6.65;;;5.38;;
53391;SDS011;41667;51.922;8.850;2024-03-17T07:50:03;10.20;;;6.57;;
53391;SDS011;41667;51.922;8.850;2024-03-17T07:52:30;10.68;;;7.30;;
53391;SDS011;41667;51.922;8.850;2024-03-17T07:54:58;12.15;;;6.47;;
53391;SDS011;41667;51.922;8.850;2024-03-17T07:57:23;10.15;;;6.28;;
53391;SDS011;41667;51.922;8.850;2024-03-17T07:59:52;11.20;;;5.85;;
53391;SDS011;41667;51.922;8.850;2024-03-17T08:02:17;8.90;;;5.90;;
53391;SDS011;41667;51.922;8.850;2024-03-17T08:04:42;13.18;;;6.18;;
53391;SDS011;41667;51.922;8.850;2024-03-17T08:07:09;12.88;;;5.88;;
53391;SDS011;41667;51.922;8.850;2024-03-17T08:09:35;13.65;;;6.50;;
53391;SDS011;41667;51.922;8.850;2024-03-17T08:12:00;12.20;;;6.13;;
53391;SDS011;41667;51.922;8.850;2024-03-17T08:14:27;9.57;;;6.15;;
53391;SDS011;41667;51.922;8.850;2024-03-17T08:16:52;13.98;;;5.97;;
53391;SDS011;41667;51.922;8.850;2024-03-17T08:19:17;11.30;;;5.63;;
53391;SDS011;41667;51.922;8.850;2024-03-17T08:21:42;13.43;;;7.05;;
53391;SDS011;41667;51.922;8.850;2024-03-17T08:24:08;8.95;;;6.93;;
53391;SDS011;41667;51.922;8.850;2024-03-17T08:26:33;12.48;;;7.05;;
53391;SDS011;41667;51.922;8.850;2024-03-17T08:28:58;16.83;;;10.05;;
53391;SDS011;41667;51.922;8.850;2024-03-17T08:31:24;14.70;;;9.25;;
53391;SDS011;41667;51.922;8.850;2024-03-17T08:33:50;9.95;;;7.80;;
53391;SDS011;41667;51.922;8.850;2024-03-17T08:36:16;14.40;;;8.27;;
53391;SDS011;41667;51.922;8.850;2024-03-17T08:38:43;11.80;;;6.72;;
53391;SDS011;41667;51.922;8.850;2024-03-17T08:41:09;12.13;;;7.28;;
53391;SDS011;41667;51.922;8.850;2024-03-17T08:43:35;13.07;;;7.55;;
53391;SDS011;41667;51.922;8.850;2024-03-17T08:46:04;13.90;;;8.00;;
53391;SDS011;41667;51.922;8.850;2024-03-17T08:48:32;11.25;;;7.32;;
53391;SDS011;41667;51.922;8.850;2024-03-17T08:50:58;18.80;;;8.00;;
53391;SDS011;41667;51.922;8.850;2024-03-17T08:53:24;10.00;;;7.57;;
53391;SDS011;41667;51.922;8.850;2024-03-17T08:55:50;11.93;;;6.75;;
53391;SDS011;41667;51.922;8.850;2024-03-17T08:58:15;13.50;;;8.07;;
53391;SDS011;41667;51.922;8.850;2024-03-17T09:00:41;11.50;;;7.07;;
53391;SDS011;41667;51.922;8.850;2024-03-17T09:03:07;12.52;;;8.05;;
53391;SDS011;41667;51.922;8.850;2024-03-17T09:05:37;15.85;;;7.68;;
53391;SDS011;41667;51.922;8.850;2024-03-17T09:08:03;10.85;;;6.90;;
53391;SDS011;41667;51.922;8.850;2024-03-17T09:10:28;10.95;;;6.90;;
53391;SDS011;41667;51.922;8.850;2024-03-17T09:12:54;12.25;;;7.28;;
53391;SDS011;41667;51.922;8.850;2024-03-17T09:15:19;11.07;;;7.30;;
53391;SDS011;41667;51.922;8.850;2024-03-17T09:17:45;15.57;;;7.45;;
53391;SDS011;41667;51.922;8.850;2024-03-17T09:20:11;9.77;;;6.75;;
53391;SDS011;41667;51.922;8.850;2024-03-17T09:22:37;12.45;;;8.02;;
53391;SDS011;41667;51.922;8.850;2024-03-17T09:25:06;12.68;;;6.50;;
53391;SDS011;41667;51.922;8.850;2024-03-17T09:27:32;10.98;;;6.18;;
53391;SDS011;41667;51.922;8.850;2024-03-17T09:29:58;12.40;;;6.65;;
53391;SDS011;41667;51.922;8.850;2024-03-17T09:32:24;14.38;;;5.88;;
53391;SDS011;41667;51.922;8.850;2024-03-17T09:34:49;10.80;;;6.22;;
53391;SDS011;41667;51.922;8.850;2024-03-17T09:37:15;13.88;;;6.57;;
53391;SDS011;41667;51.922;8.850;2024-03-17T09:39:41;13.35;;;6.07;;
53391;SDS011;41667;51.922;8.850;2024-03-17T09:42:07;12.95;;;6.90;;
53391;SDS011;41667;51.922;8.850;2024-03-17T09:44:46;10.13;;;5.55;;
53391;SDS011;41667;51.922;8.850;2024-03-17T09:47:20;11.43;;;6.97;;
53391;SDS011;41667;51.922;8.850;2024-03-17T09:49:46;9.07;;;5.35;;
53391;SDS011;41667;51.922;8.850;2024-03-17T09:52:14;10.05;;;6.78;;
53391;SDS011;41667;51.922;8.850;2024-03-17T09:54:44;9.55;;;5.88;;
53391;SDS011;41667;51.922;8.850;2024-03-17T09:57:12;14.63;;;6.05;;
53391;SDS011;41667;51.922;8.850;2024-03-17T09:59:40;11.48;;;6.25;;
53391;SDS011;41667;51.922;8.850;2024-03-17T10:02:06;9.02;;;5.40;;
53391;SDS011;41667;51.922;8.850;2024-03-17T10:04:41;11.13;;;6.72;;
53391;SDS011;41667;51.922;8.850;2024-03-17T10:07:06;8.18;;;5.57;;
53391;SDS011;41667;51.922;8.850;2024-03-17T10:09:32;8.90;;;5.70;;
53391;SDS011;41667;51.922;8.850;2024-03-17T10:11:57;10.35;;;5.55;;
53391;SDS011;41667;51.922;8.850;2024-03-17T10:14:22;12.32;;;6.20;;
53391;SDS011;41667;51.922;8.850;2024-03-17T10:16:48;12.73;;;5.80;;
53391;SDS011;41667;51.922;8.850;2024-03-17T10:19:22;9.60;;;6.07;;
53391;SDS011;41667;51.922;8.850;2024-03-17T10:21:49;9.27;;;5.40;;
53391;SDS011;41667;51.922;8.850;2024-03-17T10:24:21;11.07;;;5.43;;
53391;SDS011;41667;51.922;8.850;2024-03-17T10:26:56;7.88;;;4.93;;
53391;SDS011;41667;51.922;8.850;2024-03-17T10:31:54;7.90;;;4.57;;
53391;SDS011;41667;51.922;8.850;2024-03-17T10:34:21;10.85;;;6.20;;
53391;SDS011;41667;51.922;8.850;2024-03-17T10:36:51;10.10;;;6.45;;
53391;SDS011;41667;51.922;8.850;2024-03-17T10:39:30;9.68;;;6.45;;
53391;SDS011;41667;51.922;8.850;2024-03-17T10:42:01;12.55;;;6.82;;
53391;SDS011;41667;51.922;8.850;2024-03-17T10:44:28;14.50;;;6.93;;
53391;SDS011;41667;51.922;8.850;2024-03-17T10:46:55;10.60;;;6.70;;
53391;SDS011;41667;51.922;8.850;2024-03-17T10:49:21;13.13;;;7.57;;
53391;SDS011;41667;51.922;8.850;2024-03-17T10:51:50;12.23;;;7.05;;
53391;SDS011;41667;51.922;8.850;2024-03-17T10:54:22;12.07;;;6.25;;
53391;SDS011;41667;51.922;8.850;2024-03-17T10:56:50;11.35;;;6.63;;
53391;SDS011;41667;51.922;8.850;2024-03-17T10:59:16;11.45;;;6.45;;
53391;SDS011;41667;51.922;8.850;2024-03-17T11:01:43;11.55;;;6.63;;
53391;SDS011;41667;51.922;8.850;2024-03-17T11:04:09;16.38;;;7.25;;
53391;SDS011;41667;51.922;8.850;2024-03-17T11:06:37;13.63;;;6.95;;
53391;SDS011;41667;51.922;8.850;2024-03-17T11:09:02;9.30;;;6.78;;
53391;SDS011;41667;51.922;8.850;2024-03-17T11:11:35;11.00;;;6.20;;
53391;SDS011;41667;51.922;8.850;2024-03-17T11:14:17;9.77;;;6.97;;
53391;SDS011;41667;51.922;8.850;2024-03-17T11:16:47;10.35;;;6.10;;
53391;SDS011;41667;51.922;8.850;2024-03-17T11:19:15;10.07;;;6.60;;
53391;SDS011;41667;51.922;8.850;2024-03-17T11:21:41;12.05;;;6.55;;
53391;SDS011;41667;51.922;8.850;2024-03-17T11:24:07;10.10;;;6.22;;
53391;SDS011;41667;51.922;8.850;2024-03-17T11:26:43;13.20;;;6.78;;
53391;SDS011;41667;51.922;8.850;2024-03-17T11:29:23;12.20;;;5.65;;
53391;SDS011;41667;51.922;8.850;2024-03-17T11:31:51;9.32;;;6.28;;
53391;SDS011;41667;51.922;8.850;2024-03-17T11:36:56;7.47;;;5.80;;
53391;SDS011;41667;51.922;8.850;2024-03-17T11:42:20;9.63;;;5.57;;
53391;SDS011;41667;51.922;8.850;2024-03-17T11:45:21;9.05;;;6.22;;
53391;SDS011;41667;51.922;8.850;2024-03-17T11:47:41;10.98;;;5.85;;
53391;SDS011;41667;51.922;8.850;2024-03-17T11:50:08;7.80;;;5.32;;
53391;SDS011;41667;51.922;8.850;2024-03-17T11:52:38;11.40;;;6.68;;
53391;SDS011;41667;51.922;8.850;2024-03-17T11:55:05;7.22;;;6.07;;
53391;SDS011;41667;51.922;8.850;2024-03-17T11:57:31;9.15;;;6.13;;
53391;SDS011;41667;51.922;8.850;2024-03-17T11:59:56;10.43;;;6.35;;
53391;SDS011;41667;51.922;8.850;2024-03-17T12:02:26;10.52;;;6.55;;
53391;SDS011;41667;51.922;8.850;2024-03-17T12:04:53;8.02;;;5.50;;
53391;SDS011;41667;51.922;8.850;2024-03-17T12:07:20;11.63;;;5.97;;
53391;SDS011;41667;51.922;8.850;2024-03-17T12:09:46;8.68;;;5.70;;
53391;SDS011;41667;51.922;8.850;2024-03-17T12:12:16;10.65;;;6.60;;
53391;SDS011;41667;51.922;8.850;2024-03-17T12:14:43;10.00;;;6.80;;
53391;SDS011;41667;51.922;8.850;2024-03-17T12:17:09;9.68;;;5.80;;
53391;SDS011;41667;51.922;8.850;2024-03-17T12:19:36;10.13;;;5.88;;
53391;SDS011;41667;51.922;8.850;2024-03-17T12:22:03;15.27;;;6.60;;
53391;SDS011;41667;51.922;8.850;2024-03-17T12:24:36;4.72;;;3.97;;
53391;SDS011;41667;51.922;8.850;2024-03-17T12:27:03;8.35;;;4.55;;
53391;SDS011;41667;51.922;8.850;2024-03-17T12:29:31;6.15;;;3.47;;
53391;SDS011;41667;51.922;8.850;2024-03-17T12:32:06;11.45;;;6.15;;
53391;SDS011;41667;51.922;8.850;2024-03-17T12:34:36;10.67;;;6.10;;
53391;SDS011;41667;51.922;8.850;2024-03-17T12:37:01;9.25;;;5.97;;
53391;SDS011;41667;51.922;8.850;2024-03-17T12:39:36;8.77;;;6.30;;
53391;SDS011;41667;51.922;8.850;2024-03-17T12:44:33;7.57;;;3.33;;
53391;SDS011;41667;51.922;8.850;2024-03-17T12:47:01;4.95;;;4.13;;
53391;SDS011;41667;51.922;8.850;2024-03-17T12:49:31;4.90;;;2.97;;
53391;SDS011;41667;51.922;8.850;2024-03-17T12:51:57;3.78;;;2.60;;
53391;SDS011;41667;51.922;8.850;2024-03-17T12:54:24;6.93;;;3.20;;
53391;SDS011;41667;51.922;8.850;2024-03-17T12:56:51;7.22;;;3.17;;
53391;SDS011;41667;51.922;8.850;2024-03-17T13:02:23;12.50;;;6.82;;
53391;SDS011;41667;51.922;8.850;2024-03-17T13:07:42;11.70;;;7.23;;
53391;SDS011;41667;51.922;8.850;2024-03-17T13:10:07;10.20;;;5.97;;
53391;SDS011;41667;51.922;8.850;2024-03-17T13:12:33;6.65;;;5.07;;
53391;SDS011;41667;51.922;8.850;2024-03-17T13:14:59;5.20;;;3.72;;
53391;SDS011;41667;51.922;8.850;2024-03-17T13:17:25;5.53;;;4.47;;
53391;SDS011;41667;51.922;8.850;2024-03-17T13:19:50;6.18;;;4.60;;
53391;SDS011;41667;51.922;8.850;2024-03-17T13:22:15;5.95;;;4.55;;
53391;SDS011;41667;51.922;8.850;2024-03-17T13:24:41;7.90;;;3.78;;
53391;SDS011;41667;51.922;8.850;2024-03-17T13:27:06;4.25;;;3.50;;
53391;SDS011;41667;51.922;8.850;2024-03-17T13:29:33;4.20;;;3.20;;
53391;SDS011;41667;51.922;8.850;2024-03-17T13:32:01;7.00;;;3.85;;
53391;SDS011;41667;51.922;8.850;2024-03-17T13:34:27;4.45;;;3.25;;
53391;SDS011;41667;51.922;8.850;2024-03-17T13:36:53;3.40;;;3.10;;
53391;SDS011;41667;51.922;8.850;2024-03-17T13:39:19;5.68;;;3.80;;
53391;SDS011;41667;51.922;8.850;2024-03-17T13:41:45;5.63;;;3.65;;
53391;SDS011;41667;51.922;8.850;2024-03-17T13:44:12;5.00;;;3.35;;
53391;SDS011;41667;51.922;8.850;2024-03-17T13:46:37;4.07;;;3.33;;
53391;SDS011;41667;51.922;8.850;2024-03-17T13:49:09;10.23;;;5.95;;
53391;SDS011;41667;51.922;8.850;2024-03-17T13:51:34;3.58;;;2.88;;
53391;SDS011;41667;51.922;8.850;2024-03-17T13:53:59;5.68;;;3.60;;
53391;SDS011;41667;51.922;8.850;2024-03-17T13:56:25;5.07;;;3.55;;
53391;SDS011;41667;51.922;8.850;2024-03-17T13:58:51;3.90;;;3.20;;
53391;SDS011;41667;51.922;8.850;2024-03-17T14:01:16;6.95;;;3.60;;
53391;SDS011;41667;51.922;8.850;2024-03-17T14:03:42;5.57;;;3.60;;
53391;SDS011;41667;51.922;8.850;2024-03-17T14:06:08;6.72;;;3.72;;
53391;SDS011;41667;51.922;8.850;2024-03-17T14:08:33;6.35;;;3.47;;
53391;SDS011;41667;51.922;8.850;2024-03-17T14:10:59;5.93;;;3.78;;
53391;SDS011;41667;51.922;8.850;2024-03-17T14:13:24;7.47;;;3.65;;
53391;SDS011;41667;51.922;8.850;2024-03-17T14:15:49;7.20;;;3.92;;
53391;SDS011;41667;51.922;8.850;2024-03-17T14:18:15;5.88;;;3.40;;
53391;SDS011;41667;51.922;8.850;2024-03-17T14:20:40;5.75;;;3.83;;
53391;SDS011;41667;51.922;8.850;2024-03-17T14:23:05;6.75;;;3.20;;
53391;SDS011;41667;51.922;8.850;2024-03-17T14:25:31;9.23;;;4.05;;
53391;SDS011;41667;51.922;8.850;2024-03-17T14:27:56;6.28;;;3.85;;
53391;SDS011;41667;51.922;8.850;2024-03-17T14:30:21;4.35;;;3.25;;
53391;SDS011;41667;51.922;8.850;2024-03-17T14:32:47;5.00;;;3.97;;
53391;SDS011;41667;51.922;8.850;2024-03-17T14:35:13;6.60;;;4.10;;
53391;SDS011;41667;51.922;8.850;2024-03-17T14:37:40;6.65;;;4.43;;
53391;SDS011;41667;51.922;8.850;2024-03-17T14:40:07;9.43;;;3.78;;
53391;SDS011;41667;51.922;8.850;2024-03-17T14:42:39;4.63;;;3.58;;
53391;SDS011;41667;51.922;8.850;2024-03-17T14:45:06;6.78;;;3.78;;
53391;SDS011;41667;51.922;8.850;2024-03-17T14:47:32;5.55;;;3.88;;
53391;SDS011;41667;51.922;8.850;2024-03-17T14:49:57;4.22;;;3.67;;
53391;SDS011;41667;51.922;8.850;2024-03-17T14:52:22;5.60;;;3.83;;
53391;SDS011;41667;51.922;8.850;2024-03-17T14:54:49;4.55;;;3.13;;